createdAt,value
2022-08-21T00:00:53.076Z,4.15
2022-08-21T00:03:21.035Z,4.28
2022-08-21T00:05:51.015Z,3.75
2022-08-21T00:08:19.649Z,3.70
2022-08-21T00:10:48.531Z,5.35
2022-08-21T00:13:18.971Z,5.47
2022-08-21T00:15:46.599Z,7.13
2022-08-21T00:18:14.157Z,3.78
2022-08-21T00:20:43.414Z,3.97
2022-08-21T00:23:10.989Z,3.55
2022-08-21T00:25:39.066Z,3.08
2022-08-21T00:28:07.522Z,3.65
2022-08-21T00:30:35.256Z,2.83
2022-08-21T00:33:05.416Z,3.30
2022-08-21T00:35:36.528Z,5.70
2022-08-21T00:38:05.904Z,3.65
2022-08-21T00:40:37.585Z,3.30
2022-08-21T00:43:07.259Z,6.15
2022-08-21T00:45:34.930Z,4.40
2022-08-21T00:48:02.456Z,6.80
2022-08-21T00:50:34.532Z,4.65
2022-08-21T00:53:04.124Z,3.10
2022-08-21T00:55:32.300Z,5.78
2022-08-21T00:58:02.686Z,5.53
2022-08-21T01:00:34.772Z,4.13
2022-08-21T01:03:09.004Z,7.80
2022-08-21T01:05:37.030Z,5.45
2022-08-21T01:08:05.412Z,5.80
2022-08-21T01:10:33.227Z,5.18
2022-08-21T01:13:02.812Z,3.63
2022-08-21T01:15:34.089Z,2.97
2022-08-21T01:18:02.041Z,3.58
2022-08-21T01:20:32.322Z,3.65
2022-08-21T01:23:01.589Z,3.53
2022-08-21T01:25:28.975Z,5.53
2022-08-21T01:27:56.667Z,3.45
2022-08-21T01:30:26.994Z,4.60
2022-08-21T01:32:55.234Z,4.05
2022-08-21T01:35:22.849Z,4.93
2022-08-21T01:37:50.332Z,4.43
2022-08-21T01:40:18.503Z,6.45
2022-08-21T01:42:46.954Z,3.03
2022-08-21T01:45:15.701Z,3.88
2022-08-21T01:47:43.638Z,3.22
2022-08-21T01:50:15.320Z,5.30
2022-08-21T01:52:42.755Z,3.72
2022-08-21T01:55:11.460Z,4.05
2022-08-21T01:57:38.996Z,3.60
2022-08-21T02:00:09.639Z,3.65
2022-08-21T02:02:40.106Z,4.15
2022-08-21T02:05:09.214Z,3.42
2022-08-21T02:07:46.290Z,5.97
2022-08-21T02:10:16.750Z,5.45
2022-08-21T02:12:43.974Z,4.28
2022-08-21T02:15:11.362Z,4.10
2022-08-21T02:17:51.215Z,4.15
2022-08-21T02:20:28.423Z,3.88
2022-08-21T02:22:55.917Z,3.72
2022-08-21T02:25:25.238Z,4.85
2022-08-21T02:27:53.154Z,4.88
2022-08-21T02:30:31.036Z,5.13
2022-08-21T02:32:58.942Z,3.78
2022-08-21T02:35:28.949Z,6.30
2022-08-21T02:37:59.179Z,6.97
2022-08-21T02:40:30.046Z,6.45
2022-08-21T02:42:57.469Z,8.25
2022-08-21T02:45:25.270Z,9.85
2022-08-21T02:47:56.689Z,5.28
2022-08-21T02:50:30.245Z,6.27
2022-08-21T02:52:58.724Z,6.60
2022-08-21T02:55:28.538Z,7.75
2022-08-21T02:57:56.506Z,7.72
2022-08-21T03:00:25.523Z,6.13
2022-08-21T03:02:54.423Z,9.27
2022-08-21T03:05:21.571Z,6.07
2022-08-21T03:07:49.191Z,7.57
2022-08-21T03:10:17.467Z,6.40
2022-08-21T03:12:44.758Z,5.85
2022-08-21T03:15:16.147Z,7.05
2022-08-21T03:17:43.237Z,8.23
2022-08-21T03:20:10.850Z,8.88
2022-08-21T03:22:37.994Z,6.53
2022-08-21T03:25:06.795Z,6.75
2022-08-21T03:27:35.093Z,7.53
2022-08-21T03:30:04.649Z,7.72
2022-08-21T03:32:32.551Z,8.13
2022-08-21T03:35:01.406Z,8.40
2022-08-21T03:37:28.891Z,8.15
2022-08-21T03:39:56.505Z,8.00
2022-08-21T03:42:24.286Z,7.28
2022-08-21T03:44:51.956Z,7.07
2022-08-21T03:47:19.418Z,6.38
2022-08-21T03:49:46.498Z,7.25
2022-08-21T03:52:13.483Z,6.75
2022-08-21T03:54:42.393Z,9.30
2022-08-21T03:57:10.538Z,7.85
2022-08-21T03:59:38.315Z,7.05
2022-08-21T04:02:07.341Z,7.80
2022-08-21T04:04:35.346Z,8.25
2022-08-21T04:07:03.050Z,6.47
2022-08-21T04:09:31.121Z,6.43
2022-08-21T04:11:59.185Z,9.40
2022-08-21T04:14:27.527Z,9.98
2022-08-21T04:16:54.507Z,8.30
2022-08-21T04:19:21.906Z,9.60
2022-08-21T04:21:50.679Z,7.78
2022-08-21T04:24:20.419Z,9.00
2022-08-21T04:26:48.201Z,8.07
2022-08-21T04:29:15.609Z,8.70
2022-08-21T04:31:44.634Z,8.43
2022-08-21T04:34:11.600Z,7.93
2022-08-21T04:36:38.658Z,9.25
2022-08-21T04:39:06.376Z,9.98
2022-08-21T04:41:37.448Z,7.53
2022-08-21T04:44:06.150Z,9.68
2022-08-21T04:46:33.162Z,9.02
2022-08-21T04:49:00.424Z,9.98
2022-08-21T04:51:33.501Z,9.20
2022-08-21T04:54:07.885Z,7.78
2022-08-21T04:56:48.075Z,8.80
2022-08-21T04:59:20.099Z,8.75
2022-08-21T05:01:48.191Z,8.38
2022-08-21T05:04:19.581Z,10.05
2022-08-21T05:06:49.876Z,7.50
2022-08-21T05:09:19.450Z,9.57
2022-08-21T05:11:46.769Z,9.65
2022-08-21T05:14:14.125Z,7.55
2022-08-21T05:16:42.885Z,7.47
2022-08-21T05:19:11.283Z,7.35
2022-08-21T05:21:42.779Z,7.68
2022-08-21T05:24:09.934Z,8.65
2022-08-21T05:26:43.043Z,7.45
2022-08-21T05:29:14.387Z,8.40
2022-08-21T05:31:43.451Z,9.80
2022-08-21T05:34:10.486Z,8.27
2022-08-21T05:36:37.826Z,8.65
2022-08-21T05:39:05.177Z,10.07
2022-08-21T05:41:32.173Z,7.40
2022-08-21T05:44:01.441Z,11.07
2022-08-21T05:46:28.459Z,8.38
2022-08-21T05:48:55.409Z,10.50
2022-08-21T05:51:22.444Z,9.20
2022-08-21T05:53:49.470Z,7.82
2022-08-21T05:56:16.835Z,10.40
2022-08-21T05:58:44.005Z,8.20
2022-08-21T06:01:11.648Z,8.50
2022-08-21T06:03:41.632Z,7.68
2022-08-21T06:06:08.906Z,7.90
2022-08-21T06:08:36.173Z,7.32
2022-08-21T06:11:05.319Z,7.00
2022-08-21T06:13:32.414Z,8.48
2022-08-21T06:16:16.254Z,8.32
2022-08-21T06:18:46.095Z,8.02
2022-08-21T06:21:14.771Z,11.55
2022-08-21T06:23:42.889Z,7.70
2022-08-21T06:26:11.482Z,8.35
2022-08-21T06:28:38.969Z,7.20
2022-08-21T06:31:18.336Z,11.00
2022-08-21T06:33:45.745Z,9.77
2022-08-21T06:36:12.825Z,7.72
2022-08-21T06:38:40.817Z,6.18
2022-08-21T06:41:08.603Z,5.88
2022-08-21T06:43:39.576Z,5.80
2022-08-21T06:46:08.825Z,6.07
2022-08-21T06:48:36.040Z,8.40
2022-08-21T06:51:03.118Z,7.22
2022-08-21T06:53:30.176Z,7.85
2022-08-21T06:55:57.192Z,8.00
2022-08-21T06:58:24.261Z,5.13
2022-08-21T07:01:00.120Z,8.68
2022-08-21T07:03:39.694Z,5.68
2022-08-21T07:06:08.190Z,6.15
2022-08-21T07:08:35.734Z,6.53
2022-08-21T07:11:08.064Z,6.07
2022-08-21T07:16:04.252Z,6.53
2022-08-21T07:18:32.569Z,6.03
2022-08-21T07:21:03.127Z,6.30
2022-08-21T07:23:33.419Z,5.18
2022-08-21T07:26:01.612Z,7.03
2022-08-21T07:28:29.808Z,6.53
2022-08-21T07:30:58.926Z,7.55
2022-08-21T07:33:27.578Z,5.30
2022-08-21T07:35:55.834Z,6.45
2022-08-21T07:38:23.507Z,5.13
2022-08-21T07:40:54.137Z,7.15
2022-08-21T07:45:52.493Z,7.05
2022-08-21T07:48:19.689Z,5.43
2022-08-21T07:50:47.109Z,7.60
2022-08-21T07:53:16.035Z,4.63
2022-08-21T07:55:44.219Z,5.43
2022-08-21T07:58:11.186Z,7.22
2022-08-21T08:00:38.269Z,4.75
2022-08-21T08:03:05.308Z,5.90
2022-08-21T08:05:33.465Z,5.28
2022-08-21T08:08:00.779Z,5.47
2022-08-21T08:10:28.646Z,5.68
2022-08-21T08:12:55.965Z,6.47
2022-08-21T08:15:25.876Z,5.93
2022-08-21T08:17:53.482Z,7.68
2022-08-21T08:20:21.180Z,5.95
2022-08-21T08:22:50.321Z,5.03
2022-08-21T08:25:19.891Z,5.93
2022-08-21T08:27:46.894Z,4.78
2022-08-21T08:30:16.656Z,5.90
2022-08-21T08:32:44.017Z,4.55
2022-08-21T08:35:12.751Z,6.40
2022-08-21T08:37:41.841Z,5.18
2022-08-21T08:40:19.157Z,7.88
2022-08-21T08:42:48.615Z,5.97
2022-08-21T08:45:21.325Z,6.68
2022-08-21T08:47:56.384Z,7.05
2022-08-21T08:50:26.961Z,5.55
2022-08-21T08:53:01.401Z,6.17
2022-08-21T08:55:39.056Z,7.40
2022-08-21T08:58:07.924Z,7.15
2022-08-21T09:00:35.026Z,6.32
2022-08-21T09:03:04.125Z,8.93
2022-08-21T09:06:17.808Z,4.43
2022-08-21T09:09:20.037Z,7.03
2022-08-21T09:12:03.353Z,5.60
2022-08-21T09:14:44.825Z,5.53
2022-08-21T09:17:18.121Z,6.28
2022-08-21T09:20:03.829Z,5.22
2022-08-21T09:22:52.149Z,5.47
2022-08-21T09:25:26.694Z,8.77
2022-08-21T09:27:54.623Z,5.47
2022-08-21T09:30:29.859Z,6.75
2022-08-21T09:32:59.761Z,6.28
2022-08-21T09:35:28.051Z,6.43
2022-08-21T09:38:04.185Z,6.97
2022-08-21T09:40:37.215Z,8.13
2022-08-21T09:43:10.254Z,5.43
2022-08-21T09:45:37.499Z,6.03
2022-08-21T09:48:27.009Z,5.85
2022-08-21T09:51:30.939Z,5.78
2022-08-21T09:54:09.683Z,4.70
2022-08-21T09:57:28.857Z,6.35
2022-08-21T09:59:56.360Z,4.55
2022-08-21T10:02:35.870Z,4.78
2022-08-21T10:05:16.103Z,6.75
2022-08-21T10:07:43.612Z,5.47
2022-08-21T10:10:18.152Z,6.65
2022-08-21T10:12:59.293Z,6.97
2022-08-21T10:15:53.176Z,6.28
2022-08-21T10:18:31.034Z,9.07
2022-08-21T10:21:18.845Z,6.10
2022-08-21T10:23:45.934Z,6.97
2022-08-21T10:26:46.464Z,4.53
2022-08-21T10:29:16.609Z,6.60
2022-08-21T10:32:01.799Z,11.63
2022-08-21T10:34:57.895Z,5.38
2022-08-21T10:37:28.808Z,7.40
2022-08-21T10:40:30.032Z,8.82
2022-08-21T10:43:21.785Z,4.63
2022-08-21T10:46:13.074Z,4.90
2022-08-21T10:48:48.379Z,4.28
2022-08-21T10:51:39.859Z,6.20
2022-08-21T10:54:23.472Z,6.72
2022-08-21T10:56:59.983Z,8.35
2022-08-21T10:59:44.979Z,7.20
2022-08-21T11:02:27.770Z,8.45
2022-08-21T11:05:13.105Z,5.82
2022-08-21T11:07:58.941Z,9.27
2022-08-21T11:10:59.174Z,4.72
2022-08-21T11:13:31.285Z,6.95
2022-08-21T11:16:06.552Z,8.00
2022-08-21T11:18:54.904Z,8.15
2022-08-21T11:21:44.231Z,11.70
2022-08-21T11:24:28.815Z,11.90
2022-08-21T11:27:37.589Z,9.68
2022-08-21T11:30:07.729Z,14.15
2022-08-21T11:32:43.678Z,10.35
2022-08-21T11:35:22.654Z,10.45
2022-08-21T11:38:23.233Z,10.13
2022-08-21T11:40:59.138Z,9.10
2022-08-21T11:43:38.764Z,14.98
2022-08-21T11:46:17.793Z,14.20
2022-08-21T11:48:59.999Z,11.05
2022-08-21T11:52:12.976Z,13.73
2022-08-21T11:54:52.637Z,13.05
2022-08-21T11:57:28.706Z,17.55
2022-08-21T12:00:12.038Z,11.25
2022-08-21T12:02:51.263Z,14.98
2022-08-21T12:05:52.736Z,16.50
2022-08-21T12:08:29.166Z,12.80
2022-08-21T12:11:24.185Z,18.17
2022-08-21T12:14:06.938Z,14.57
2022-08-21T12:16:37.709Z,14.23
2022-08-21T12:19:10.354Z,14.35
2022-08-21T12:22:04.124Z,12.60
2022-08-21T12:24:39.455Z,12.98
2022-08-21T12:27:22.173Z,13.07
2022-08-21T12:29:52.401Z,14.43
2022-08-21T12:32:20.453Z,13.80
2022-08-21T12:35:05.517Z,14.60
2022-08-21T12:37:53.219Z,14.77
2022-08-21T12:40:25.596Z,14.90
2022-08-21T12:42:59.511Z,14.52
2022-08-21T12:45:35.170Z,18.52
2022-08-21T12:48:32.279Z,16.27
2022-08-21T12:51:12.280Z,18.38
2022-08-21T12:53:51.511Z,13.70
2022-08-21T12:56:21.871Z,14.68
2022-08-21T12:59:11.076Z,14.18
2022-08-21T13:01:47.039Z,14.50
2022-08-21T13:04:34.952Z,13.05
2022-08-21T13:07:02.273Z,16.45
2022-08-21T13:09:32.023Z,12.38
2022-08-21T13:12:00.573Z,13.77
2022-08-21T13:14:38.401Z,14.88
2022-08-21T13:17:12.764Z,11.48
2022-08-21T13:19:39.917Z,9.10
2022-08-21T13:22:33.976Z,9.75
2022-08-21T13:25:07.095Z,8.43
2022-08-21T13:27:35.275Z,9.82
2022-08-21T13:30:13.141Z,9.25
2022-08-21T13:32:46.893Z,14.77
2022-08-21T13:35:26.654Z,11.00
2022-08-21T13:37:55.638Z,12.82
2022-08-21T13:40:51.826Z,9.65
2022-08-21T13:43:28.735Z,12.50
2022-08-21T13:45:57.055Z,9.68
2022-08-21T13:48:28.904Z,13.13
2022-08-21T13:50:56.997Z,8.88
2022-08-21T13:53:27.922Z,9.73
2022-08-21T13:55:59.988Z,10.00
2022-08-21T13:58:31.164Z,10.43
2022-08-21T14:01:00.496Z,12.25
2022-08-21T14:03:42.570Z,10.70
2022-08-21T14:06:29.486Z,10.85
2022-08-21T14:09:01.410Z,10.93
2022-08-21T14:11:33.787Z,12.13
2022-08-21T14:14:13.629Z,8.75
2022-08-21T14:16:48.103Z,11.48
2022-08-21T14:19:25.342Z,8.45
2022-08-21T14:21:52.857Z,7.47
2022-08-21T14:24:29.735Z,8.40
2022-08-21T14:27:06.650Z,7.47
2022-08-21T14:29:39.897Z,8.63
2022-08-21T14:32:21.452Z,7.00
2022-08-21T14:34:52.348Z,7.47
2022-08-21T14:37:21.861Z,9.05
2022-08-21T14:39:48.898Z,9.32
2022-08-21T14:42:15.947Z,5.97
2022-08-21T14:44:42.992Z,7.28
2022-08-21T14:47:10.620Z,6.00
2022-08-21T14:49:37.702Z,6.80
2022-08-21T14:52:05.834Z,9.43
2022-08-21T14:54:33.172Z,6.80
2022-08-21T14:57:04.420Z,7.07
2022-08-21T14:59:33.791Z,9.70
2022-08-21T15:02:08.105Z,5.53
2022-08-21T15:04:36.251Z,7.68
2022-08-21T15:07:04.038Z,6.22
2022-08-21T15:09:31.256Z,7.13
2022-08-21T15:12:01.169Z,6.90
2022-08-21T15:14:31.618Z,6.65
2022-08-21T15:16:58.821Z,9.85
2022-08-21T15:19:26.565Z,7.28
2022-08-21T15:21:54.207Z,8.60
2022-08-21T15:24:21.247Z,6.20
2022-08-21T15:26:49.612Z,4.80
2022-08-21T15:29:20.700Z,5.30
2022-08-21T15:32:16.533Z,4.05
2022-08-21T15:34:43.900Z,5.07
2022-08-21T15:37:11.158Z,6.60
2022-08-21T15:39:41.375Z,5.90
2022-08-21T15:42:10.903Z,5.15
2022-08-21T15:44:43.924Z,4.95
2022-08-21T15:47:18.331Z,4.10
2022-08-21T15:49:46.502Z,3.78
2022-08-21T15:52:18.610Z,6.32
2022-08-21T15:54:47.528Z,4.85
2022-08-21T15:57:17.700Z,5.68
2022-08-21T15:59:48.906Z,3.83
2022-08-21T16:02:34.088Z,3.47
2022-08-21T16:05:01.246Z,5.88
2022-08-21T16:07:28.326Z,5.00
2022-08-21T16:09:55.508Z,7.22
2022-08-21T16:12:25.540Z,4.20
2022-08-21T16:14:54.672Z,3.13
2022-08-21T16:17:29.284Z,4.55
2022-08-21T16:19:57.152Z,6.75
2022-08-21T16:22:24.451Z,5.22
2022-08-21T16:24:51.531Z,3.05
2022-08-21T16:27:19.569Z,4.07
2022-08-21T16:29:48.234Z,4.03
2022-08-21T16:32:16.309Z,2.63
2022-08-21T16:34:49.368Z,4.97
2022-08-21T16:37:24.369Z,6.25
2022-08-21T16:39:53.330Z,3.15
2022-08-21T16:42:24.410Z,3.88
2022-08-21T16:44:51.779Z,4.95
2022-08-21T16:47:26.356Z,4.35
2022-08-21T16:49:54.690Z,3.85
2022-08-21T16:52:21.695Z,4.43
2022-08-21T16:54:48.668Z,4.30
2022-08-21T16:57:16.408Z,3.97
2022-08-21T16:59:43.733Z,5.10
2022-08-21T17:02:37.680Z,6.25
2022-08-21T17:05:06.685Z,4.05
2022-08-21T17:07:42.692Z,4.90
2022-08-21T17:10:12.495Z,5.63
2022-08-21T17:12:41.518Z,4.85
2022-08-21T17:15:21.768Z,5.20
2022-08-21T17:17:50.119Z,5.88
2022-08-21T17:20:19.205Z,6.47
2022-08-21T17:22:47.470Z,5.25
2022-08-21T17:25:15.957Z,5.05
2022-08-21T17:27:44.273Z,5.40
2022-08-21T17:30:12.899Z,7.43
2022-08-21T17:32:41.465Z,4.43
2022-08-21T17:35:09.624Z,5.95
2022-08-21T17:37:37.294Z,8.82
2022-08-21T17:40:06.755Z,5.57
2022-08-21T17:42:34.710Z,3.83
2022-08-21T17:45:02.207Z,4.75
2022-08-21T17:47:30.406Z,4.97
2022-08-21T17:49:57.436Z,5.38
2022-08-21T17:52:24.731Z,4.45
2022-08-21T17:54:51.726Z,3.42
2022-08-21T17:57:22.822Z,3.60
2022-08-21T17:59:55.185Z,3.97
2022-08-21T18:02:26.110Z,4.47
2022-08-21T18:04:55.816Z,3.40
2022-08-21T18:07:32.024Z,4.55
2022-08-21T18:10:02.401Z,5.32
2022-08-21T18:12:30.995Z,3.38
2022-08-21T18:14:59.317Z,5.50
2022-08-21T18:17:28.594Z,4.60
2022-08-21T18:19:56.252Z,5.00
2022-08-21T18:22:23.594Z,4.30
2022-08-21T18:24:52.638Z,3.50
2022-08-21T18:27:21.336Z,3.97
2022-08-21T18:29:51.039Z,3.38
2022-08-21T18:32:31.757Z,5.18
2022-08-21T18:35:01.767Z,4.50
2022-08-21T18:37:29.933Z,7.25
2022-08-21T18:39:57.458Z,5.18
2022-08-21T18:42:28.549Z,4.82
2022-08-21T18:45:01.266Z,3.97
2022-08-21T18:47:34.603Z,4.60
2022-08-21T18:50:02.562Z,4.90
2022-08-21T18:52:32.981Z,3.75
2022-08-21T18:55:05.963Z,5.32
2022-08-21T18:57:36.772Z,6.30
2022-08-21T19:00:18.412Z,7.45
2022-08-21T19:02:47.017Z,7.57
2022-08-21T19:05:17.444Z,5.88
2022-08-21T19:07:46.238Z,3.88
2022-08-21T19:10:28.893Z,4.03
2022-08-21T19:13:00.361Z,4.75
2022-08-21T19:15:30.567Z,7.47
2022-08-21T19:17:59.021Z,5.50
2022-08-21T19:20:37.125Z,7.28
2022-08-21T19:23:07.353Z,4.20
2022-08-21T19:25:36.651Z,6.60
2022-08-21T19:31:03.496Z,4.70
2022-08-21T19:33:36.787Z,6.03
2022-08-21T19:36:06.497Z,5.97
2022-08-21T19:38:34.784Z,5.82
2022-08-21T19:41:03.802Z,5.70
2022-08-21T19:43:34.277Z,5.18
2022-08-21T19:46:02.393Z,4.00
2022-08-21T19:48:31.169Z,7.00
2022-08-21T19:51:01.359Z,5.03
2022-08-21T19:53:28.868Z,4.13
2022-08-21T19:55:56.692Z,5.45
2022-08-21T19:58:42.370Z,4.70
2022-08-21T20:01:16.534Z,4.78
2022-08-21T20:03:45.449Z,10.68
2022-08-21T20:06:24.034Z,4.20
2022-08-21T20:08:53.195Z,6.35
2022-08-21T20:11:28.097Z,4.68
2022-08-21T20:14:00.909Z,5.07
2022-08-21T20:16:30.017Z,5.50
2022-08-21T20:18:58.883Z,4.68
2022-08-21T20:21:27.103Z,4.78
2022-08-21T20:23:56.208Z,3.80
2022-08-21T20:26:24.928Z,6.15
2022-08-21T20:28:53.631Z,5.00
2022-08-21T20:31:23.865Z,6.30
2022-08-21T20:33:53.319Z,4.25
2022-08-21T20:36:23.031Z,5.22
2022-08-21T20:38:54.227Z,3.90
2022-08-21T20:41:30.629Z,6.30
2022-08-21T20:44:13.655Z,3.13
2022-08-21T20:46:41.070Z,3.30
2022-08-21T20:49:14.532Z,4.90
2022-08-21T20:51:50.354Z,4.13
2022-08-21T20:54:48.000Z,6.82
2022-08-21T20:57:33.605Z,4.15
2022-08-21T21:00:06.086Z,3.67
2022-08-21T21:02:56.926Z,4.25
2022-08-21T21:05:53.858Z,5.00
2022-08-21T21:08:46.914Z,3.85
2022-08-21T21:11:19.292Z,2.85
2022-08-21T21:13:49.690Z,5.38
2022-08-21T21:16:27.338Z,3.78
2022-08-21T21:19:21.774Z,3.03
2022-08-21T21:21:56.300Z,2.75
2022-08-21T21:24:32.513Z,2.45
2022-08-21T21:27:18.518Z,3.47
2022-08-21T21:30:27.298Z,4.03
2022-08-21T21:32:55.727Z,3.45
2022-08-21T21:35:32.984Z,4.03
2022-08-21T21:38:11.214Z,4.15
2022-08-21T21:40:39.271Z,3.20
2022-08-21T21:43:15.810Z,4.13
2022-08-21T21:46:08.368Z,3.63
2022-08-21T21:49:00.650Z,5.45
2022-08-21T21:51:55.813Z,3.03
2022-08-21T21:54:27.332Z,3.13
2022-08-21T21:57:19.434Z,2.20
2022-08-21T22:00:05.949Z,3.53
2022-08-21T22:02:50.194Z,2.25
2022-08-21T22:05:48.108Z,2.83
2022-08-21T22:08:33.901Z,2.28
2022-08-21T22:14:03.585Z,3.70
2022-08-21T22:16:33.785Z,3.17
2022-08-21T22:19:19.604Z,2.83
2022-08-21T22:21:56.278Z,2.13
2022-08-21T22:24:35.900Z,4.03
2022-08-21T22:27:18.601Z,5.82
2022-08-21T22:29:59.340Z,4.47
2022-08-21T22:32:45.990Z,4.63
2022-08-21T22:35:24.472Z,2.78
2022-08-21T22:38:02.212Z,3.08
2022-08-21T22:40:35.745Z,4.10
2022-08-21T22:43:07.370Z,3.53
2022-08-21T22:45:54.401Z,4.75
2022-08-21T22:48:24.616Z,3.83
2022-08-21T22:51:07.646Z,4.03
2022-08-21T22:53:37.869Z,2.33
2022-08-21T22:56:08.946Z,2.58
2022-08-21T22:58:59.699Z,2.13
2022-08-21T23:01:27.080Z,2.45
2022-08-21T23:03:59.017Z,2.42
2022-08-21T23:06:47.020Z,4.28
2022-08-21T23:09:28.324Z,3.30
2022-08-21T23:11:59.461Z,5.15
2022-08-21T23:14:28.120Z,3.17
2022-08-21T23:17:19.280Z,3.00
2022-08-21T23:20:13.183Z,2.72
2022-08-21T23:23:00.191Z,2.08
2022-08-21T23:25:57.612Z,3.85
2022-08-21T23:28:41.553Z,2.90
2022-08-21T23:31:35.474Z,3.97
2022-08-21T23:34:15.866Z,2.95
2022-08-21T23:37:23.183Z,3.35
2022-08-21T23:40:14.387Z,4.18
2022-08-21T23:43:26.244Z,3.78
2022-08-21T23:46:12.620Z,6.57
2022-08-21T23:48:52.769Z,5.72
2022-08-21T23:51:41.344Z,4.57
2022-08-21T23:54:14.760Z,5.50
2022-08-21T23:56:51.349Z,5.97
2022-08-21T23:59:50.958Z,5.68
